createdAt,value
2018-02-24T00:00:17.474Z,40.90
2018-02-24T00:02:45.047Z,40.90
2018-02-24T00:05:12.690Z,41.50
2018-02-24T00:07:40.227Z,41.00
2018-02-24T00:10:07.867Z,41.00
2018-02-24T00:12:35.426Z,41.00
2018-02-24T00:15:03.027Z,41.00
2018-02-24T00:17:30.625Z,41.00
2018-02-24T00:19:58.231Z,41.00
2018-02-24T00:22:25.803Z,41.00
2018-02-24T00:24:53.390Z,41.10
2018-02-24T00:27:21.078Z,41.20
2018-02-24T00:29:48.680Z,41.30
2018-02-24T00:32:16.275Z,41.30
2018-02-24T00:34:44.706Z,41.40
2018-02-24T00:37:12.403Z,41.40
2018-02-24T00:39:40.031Z,41.40
2018-02-24T00:42:07.596Z,41.40
2018-02-24T00:44:35.959Z,41.40
2018-02-24T00:47:03.540Z,41.40
2018-02-24T00:49:31.161Z,41.40
2018-02-24T00:51:58.734Z,41.90
2018-02-24T00:54:26.335Z,41.50
2018-02-24T00:56:53.914Z,41.50
2018-02-24T00:59:21.515Z,41.30
2018-02-24T01:01:49.856Z,41.50
2018-02-24T01:04:17.420Z,41.50
2018-02-24T01:06:45.086Z,41.60
2018-02-24T01:09:12.667Z,41.50
2018-02-24T01:11:40.259Z,41.60
2018-02-24T01:14:07.842Z,41.60
2018-02-24T01:16:35.443Z,41.60
2018-02-24T01:19:03.771Z,41.70
2018-02-24T01:21:31.491Z,41.60
2018-02-24T01:23:59.847Z,41.60
2018-02-24T01:26:27.448Z,41.50
2018-02-24T01:28:55.041Z,41.70
2018-02-24T01:31:23.409Z,41.80
2018-02-24T01:33:50.999Z,41.70
2018-02-24T01:36:19.366Z,41.70
2018-02-24T01:38:46.948Z,41.70
2018-02-24T01:41:14.539Z,41.70
2018-02-24T01:43:42.872Z,41.80
2018-02-24T01:46:10.476Z,41.70
2018-02-24T01:48:38.130Z,41.80
2018-02-24T01:51:05.786Z,41.90
2018-02-24T01:53:33.458Z,41.90
2018-02-24T01:56:01.051Z,42.00
2018-02-24T01:58:28.622Z,42.00
2018-02-24T02:00:56.214Z,41.90
2018-02-24T02:03:23.842Z,42.00
2018-02-24T02:05:51.438Z,42.00
2018-02-24T02:08:19.099Z,41.90
2018-02-24T02:10:46.723Z,41.90
2018-02-24T02:13:15.171Z,42.00
2018-02-24T02:15:42.901Z,41.90
2018-02-24T02:18:11.239Z,42.00
2018-02-24T02:20:38.857Z,42.00
2018-02-24T02:23:07.211Z,42.00
2018-02-24T02:25:34.783Z,42.00
2018-02-24T02:28:02.414Z,42.00
2018-02-24T02:30:29.991Z,41.90
2018-02-24T02:32:57.606Z,41.90
2018-02-24T02:35:25.184Z,42.00
2018-02-24T02:37:52.784Z,41.90
2018-02-24T02:40:21.123Z,41.80
2018-02-24T02:42:48.718Z,41.70
2018-02-24T02:45:16.287Z,41.70
2018-02-24T02:47:43.886Z,41.80
2018-02-24T02:50:12.255Z,42.10
2018-02-24T02:52:39.859Z,41.80
2018-02-24T02:55:08.210Z,41.80
2018-02-24T02:57:35.802Z,41.80
2018-02-24T03:00:03.383Z,41.70
2018-02-24T03:02:31.745Z,41.80
2018-02-24T03:04:59.315Z,41.80
2018-02-24T03:07:26.975Z,41.80
2018-02-24T03:09:54.538Z,41.80
2018-02-24T03:12:22.221Z,41.80
2018-02-24T03:14:49.803Z,41.90
2018-02-24T03:17:17.454Z,41.90
2018-02-24T03:19:45.775Z,41.80
2018-02-24T03:22:13.427Z,41.80
2018-02-24T03:24:40.998Z,41.80
2018-02-24T03:27:08.589Z,41.80
2018-02-24T03:29:36.195Z,41.90
2018-02-24T03:32:04.530Z,42.30
2018-02-24T03:34:32.163Z,42.00
2018-02-24T03:37:00.595Z,42.10
2018-02-24T03:39:28.195Z,42.00
2018-02-24T03:41:55.792Z,41.90
2018-02-24T03:44:23.378Z,41.90
2018-02-24T03:46:50.969Z,41.90
2018-02-24T03:49:18.570Z,42.00
2018-02-24T03:51:46.141Z,42.10
2018-02-24T03:54:13.730Z,42.00
2018-02-24T03:56:41.296Z,42.10
2018-02-24T03:59:08.898Z,42.00
2018-02-24T04:01:36.476Z,42.00
2018-02-24T04:04:04.855Z,42.00
2018-02-24T04:06:32.432Z,42.00
2018-02-24T04:09:01.039Z,42.20
2018-02-24T04:11:29.442Z,42.00
2018-02-24T04:13:57.023Z,41.90
2018-02-24T04:16:25.492Z,42.10
2018-02-24T04:18:55.461Z,42.10
2018-02-24T04:21:23.035Z,42.10
2018-02-24T04:23:50.602Z,42.10
2018-02-24T04:26:18.251Z,42.10
2018-02-24T04:28:46.594Z,42.10
2018-02-24T04:31:14.262Z,42.10
2018-02-24T04:33:41.847Z,42.10
2018-02-24T04:36:09.451Z,42.10
2018-02-24T04:38:37.908Z,42.20
2018-02-24T04:41:05.490Z,42.10
2018-02-24T04:46:06.079Z,42.10
2018-02-24T04:48:33.652Z,42.30
2018-02-24T04:51:01.230Z,42.20
2018-02-24T04:53:29.579Z,42.20
2018-02-24T04:55:57.218Z,42.10
2018-02-24T04:58:24.808Z,42.20
2018-02-24T05:00:52.377Z,42.20
2018-02-24T05:03:19.945Z,42.20
2018-02-24T05:05:47.580Z,42.30
2018-02-24T05:08:15.916Z,42.10
2018-02-24T05:10:43.522Z,42.10
2018-02-24T05:13:11.094Z,42.20
2018-02-24T05:15:38.934Z,42.40
2018-02-24T05:18:06.516Z,42.20
2018-02-24T05:20:34.096Z,42.20
2018-02-24T05:23:01.721Z,42.10
2018-02-24T05:25:30.112Z,42.50
2018-02-24T05:27:58.469Z,42.30
2018-02-24T05:30:26.047Z,42.20
2018-02-24T05:32:53.699Z,42.20
2018-02-24T05:35:21.279Z,42.30
2018-02-24T05:37:48.846Z,42.40
2018-02-24T05:40:16.414Z,42.30
2018-02-24T05:42:44.088Z,42.30
2018-02-24T05:45:11.666Z,42.30
2018-02-24T05:47:39.388Z,42.30
2018-02-24T05:50:07.732Z,42.30
2018-02-24T05:52:35.310Z,42.30
2018-02-24T05:55:02.899Z,42.40
2018-02-24T05:57:30.496Z,42.30
2018-02-24T05:59:58.850Z,42.20
2018-02-24T06:02:26.477Z,42.10
2018-02-24T06:04:54.082Z,42.20
2018-02-24T06:07:21.675Z,42.10
2018-02-24T06:09:49.275Z,42.10
2018-02-24T06:12:18.456Z,42.10
2018-02-24T06:14:46.048Z,42.00
2018-02-24T06:17:14.430Z,42.20
2018-02-24T06:19:42.097Z,42.10
2018-02-24T06:22:09.664Z,42.50
2018-02-24T06:24:37.243Z,42.20
2018-02-24T06:27:05.670Z,42.10
2018-02-24T06:29:33.261Z,42.00
2018-02-24T06:32:00.866Z,42.00
2018-02-24T06:34:28.454Z,42.10
2018-02-24T06:36:56.070Z,42.20
2018-02-24T06:39:23.647Z,42.10
2018-02-24T06:41:51.226Z,42.10
2018-02-24T06:44:18.820Z,42.10
2018-02-24T06:46:46.392Z,42.10
2018-02-24T06:49:13.984Z,42.00
2018-02-24T06:51:41.587Z,41.90
2018-02-24T06:54:09.959Z,41.90
2018-02-24T06:56:37.675Z,41.80
2018-02-24T06:59:05.249Z,41.70
2018-02-24T07:01:32.823Z,41.70
2018-02-24T07:04:00.437Z,41.70
2018-02-24T07:06:28.117Z,41.70
2018-02-24T07:08:56.663Z,41.60
2018-02-24T07:11:24.468Z,41.70
2018-02-24T07:13:52.048Z,41.70
2018-02-24T07:16:19.626Z,41.70
2018-02-24T07:18:47.210Z,41.80
2018-02-24T07:21:14.789Z,41.60
2018-02-24T07:23:43.132Z,41.50
2018-02-24T07:26:10.776Z,41.40
2018-02-24T07:28:38.982Z,41.40
2018-02-24T07:31:07.255Z,41.40
2018-02-24T07:33:34.842Z,41.50
2018-02-24T07:36:02.447Z,41.60
2018-02-24T07:38:30.077Z,41.60
2018-02-24T07:40:57.663Z,41.50
2018-02-24T07:43:25.253Z,41.30
2018-02-24T07:46:31.751Z,41.30
2018-02-24T07:48:59.408Z,41.30
2018-02-24T07:51:27.481Z,41.40
2018-02-24T07:53:55.138Z,41.50
2018-02-24T07:56:22.751Z,41.40
2018-02-24T07:58:50.967Z,41.30
2018-02-24T08:01:18.569Z,41.20
2018-02-24T08:03:46.156Z,41.20
2018-02-24T08:06:13.913Z,41.00
2018-02-24T08:08:41.512Z,40.90
2018-02-24T08:11:09.129Z,41.00
2018-02-24T08:13:36.767Z,41.20
2018-02-24T08:16:04.495Z,41.00
2018-02-24T08:18:32.850Z,40.70
2018-02-24T08:21:00.495Z,40.60
2018-02-24T08:23:28.139Z,40.60
2018-02-24T08:25:57.919Z,40.60
2018-02-24T08:28:25.979Z,40.50
2018-02-24T08:30:54.418Z,40.10
2018-02-24T08:33:22.037Z,40.10
2018-02-24T08:35:49.631Z,40.00
2018-02-24T08:38:17.218Z,39.90
2018-02-24T08:40:44.885Z,39.70
2018-02-24T08:43:12.483Z,39.70
2018-02-24T08:45:40.143Z,39.80
2018-02-24T08:48:07.715Z,39.60
2018-02-24T08:50:35.453Z,39.70
2018-02-24T08:53:03.103Z,39.80
2018-02-24T08:55:30.754Z,39.90
2018-02-24T08:57:58.378Z,40.00
2018-02-24T09:00:26.025Z,39.90
2018-02-24T09:02:53.654Z,40.10
2018-02-24T09:05:21.540Z,40.20
2018-02-24T09:07:49.889Z,40.50
2018-02-24T09:10:17.475Z,40.50
2018-02-24T09:12:45.082Z,40.60
2018-02-24T09:15:12.653Z,40.60
2018-02-24T09:17:40.288Z,40.80
2018-02-24T09:20:08.051Z,41.70
2018-02-24T09:22:36.081Z,41.20
2018-02-24T09:25:03.826Z,41.30
2018-02-24T09:27:31.451Z,41.50
2018-02-24T09:29:59.437Z,41.70
2018-02-24T09:32:27.900Z,41.90
2018-02-24T09:34:55.581Z,41.80
2018-02-24T09:37:23.515Z,41.90
2018-02-24T09:39:51.108Z,42.00
2018-02-24T09:42:18.721Z,42.00
2018-02-24T09:44:46.437Z,42.10
2018-02-24T09:47:14.041Z,42.10
2018-02-24T09:49:41.644Z,42.30
2018-02-24T09:52:10.890Z,42.30
2018-02-24T09:54:39.218Z,42.40
2018-02-24T09:57:07.179Z,42.50
2018-02-24T09:59:36.199Z,42.20
2018-02-24T10:02:04.133Z,42.60
2018-02-24T10:04:33.583Z,42.70
2018-02-24T10:07:02.016Z,43.10
2018-02-24T10:09:30.721Z,43.00
2018-02-24T10:12:00.107Z,43.20
2018-02-24T10:14:28.647Z,43.30
2018-02-24T10:16:59.767Z,43.20
2018-02-24T10:19:29.348Z,44.10
2018-02-24T10:21:58.589Z,43.50
2018-02-24T10:24:27.286Z,43.60
2018-02-24T10:26:54.897Z,43.70
2018-02-24T10:29:22.511Z,43.80
2018-02-24T10:31:50.248Z,44.50
2018-02-24T10:34:17.812Z,44.10
2018-02-24T10:36:45.481Z,44.20
2018-02-24T10:39:13.814Z,44.30
2018-02-24T10:41:41.420Z,44.20
2018-02-24T10:44:09.379Z,44.40
2018-02-24T10:46:37.008Z,44.90
2018-02-24T10:49:14.507Z,45.40
2018-02-24T10:51:42.954Z,44.20
2018-02-24T10:54:10.566Z,44.20
2018-02-24T10:56:39.374Z,44.20
2018-02-24T10:59:07.744Z,44.80
2018-02-24T11:01:35.364Z,44.10
2018-02-24T11:04:03.004Z,44.20
2018-02-24T11:06:30.712Z,44.10
2018-02-24T11:08:58.352Z,44.30
2018-02-24T11:11:25.958Z,44.30
2018-02-24T11:13:54.116Z,44.20
2018-02-24T11:16:22.444Z,44.00
2018-02-24T11:18:50.407Z,44.00
2018-02-24T11:21:18.012Z,44.00
2018-02-24T11:23:45.613Z,44.10
2018-02-24T11:26:13.195Z,44.10
2018-02-24T11:28:40.826Z,44.00
2018-02-24T11:31:08.462Z,44.00
2018-02-24T11:33:36.819Z,44.00
2018-02-24T11:36:04.390Z,44.00
2018-02-24T11:38:31.992Z,43.90
2018-02-24T11:40:59.610Z,43.90
2018-02-24T11:43:27.390Z,43.60
2018-02-24T11:45:55.851Z,43.60
2018-02-24T11:48:24.289Z,43.50
2018-02-24T11:50:52.892Z,43.30
2018-02-24T11:53:20.517Z,43.20
2018-02-24T11:55:50.993Z,43.30
2018-02-24T11:58:19.230Z,43.20
2018-02-24T12:00:47.372Z,43.40
2018-02-24T12:03:15.743Z,43.40
2018-02-24T12:05:44.294Z,43.60
2018-02-24T12:08:12.008Z,44.20
2018-02-24T12:10:39.586Z,43.70
2018-02-24T12:13:07.244Z,43.60
2018-02-24T12:15:34.840Z,43.30
2018-02-24T12:18:03.196Z,43.20
2018-02-24T12:20:30.785Z,43.20
2018-02-24T12:22:58.421Z,43.40
2018-02-24T12:25:26.772Z,43.40
2018-02-24T12:27:54.370Z,43.20
2018-02-24T12:30:22.723Z,43.50
2018-02-24T12:32:50.339Z,43.50
2018-02-24T12:35:18.753Z,44.20
2018-02-24T12:37:46.371Z,43.50
2018-02-24T12:40:13.949Z,43.70
2018-02-24T12:42:41.590Z,43.90
2018-02-24T12:45:09.169Z,43.80
2018-02-24T12:47:36.796Z,43.70
2018-02-24T12:50:05.186Z,43.70
2018-02-24T12:52:33.565Z,43.60
2018-02-24T12:55:01.505Z,44.00
2018-02-24T12:57:29.784Z,44.30
2018-02-24T12:59:59.097Z,44.20
2018-02-24T13:02:28.392Z,44.50
2018-02-24T13:04:57.791Z,44.50
2018-02-24T13:07:25.930Z,44.50
2018-02-24T13:09:53.888Z,44.70
2018-02-24T13:12:24.078Z,44.80
2018-02-24T13:14:52.510Z,44.50
2018-02-24T13:17:20.106Z,44.40
2018-02-24T13:22:46.440Z,44.00
2018-02-24T13:25:15.252Z,43.80
2018-02-24T13:27:44.934Z,43.70
2018-02-24T13:30:13.077Z,43.40
2018-02-24T13:32:46.955Z,43.00
2018-02-24T13:35:14.560Z,43.00
2018-02-24T13:37:43.571Z,42.20
2018-02-24T13:40:12.579Z,42.00
2018-02-24T13:42:41.015Z,41.60
2018-02-24T13:45:10.134Z,40.80
2018-02-24T13:47:40.257Z,40.60
2018-02-24T13:50:09.996Z,40.50
2018-02-24T13:52:38.307Z,40.50
2018-02-24T13:55:06.486Z,40.50
2018-02-24T13:57:34.636Z,40.60
2018-02-24T14:00:02.292Z,40.00
2018-02-24T14:02:30.326Z,39.70
2018-02-24T14:04:59.664Z,39.50
2018-02-24T14:07:29.079Z,39.40
2018-02-24T14:09:58.132Z,39.30
2018-02-24T14:12:27.473Z,39.30
2018-02-24T14:14:55.504Z,39.10
2018-02-24T14:17:23.584Z,39.00
2018-02-24T14:19:52.576Z,38.70
2018-02-24T14:22:21.328Z,38.80
2018-02-24T14:24:48.986Z,39.10
2018-02-24T14:27:17.784Z,39.20
2018-02-24T14:29:46.732Z,38.80
2018-02-24T14:32:16.491Z,38.30
2018-02-24T14:34:44.486Z,38.30
2018-02-24T14:37:12.284Z,38.10
2018-02-24T14:39:41.216Z,38.30
2018-02-24T14:42:09.891Z,38.30
2018-02-24T14:44:38.673Z,38.60
2018-02-24T14:47:07.749Z,37.80
2018-02-24T14:49:35.850Z,37.50
2018-02-24T14:52:04.222Z,37.20
2018-02-24T14:54:32.421Z,37.10
2018-02-24T14:57:00.700Z,37.10
2018-02-24T14:59:29.044Z,37.00
2018-02-24T15:01:58.438Z,36.90
2018-02-24T15:04:27.532Z,36.90
2018-02-24T15:06:56.717Z,36.70
2018-02-24T15:09:25.611Z,36.80
2018-02-24T15:11:53.784Z,36.80
2018-02-24T15:14:22.752Z,36.50
2018-02-24T15:16:50.850Z,36.50
2018-02-24T15:19:19.102Z,36.70
2018-02-24T15:21:47.535Z,36.90
2018-02-24T15:24:17.077Z,36.80
2018-02-24T15:26:45.264Z,36.70
2018-02-24T15:29:13.448Z,36.70
2018-02-24T15:31:42.852Z,36.50
2018-02-24T15:34:11.610Z,36.50
2018-02-24T15:36:40.037Z,36.50
2018-02-24T15:39:08.434Z,36.50
2018-02-24T15:41:37.424Z,36.30
2018-02-24T15:44:06.249Z,36.50
2018-02-24T15:46:34.529Z,36.40
2018-02-24T15:49:02.892Z,36.60
2018-02-24T15:51:32.767Z,36.70
2018-02-24T15:54:02.688Z,35.80
2018-02-24T15:56:30.919Z,35.80
2018-02-24T15:58:59.468Z,35.40
2018-02-24T16:01:28.223Z,35.50
2018-02-24T16:03:56.473Z,35.50
2018-02-24T16:06:25.441Z,34.80
2018-02-24T16:08:55.411Z,34.70
2018-02-24T16:11:23.498Z,34.90
2018-02-24T16:13:52.291Z,34.70
2018-02-24T16:16:20.994Z,34.80
2018-02-24T16:18:48.968Z,34.00
2018-02-24T16:21:17.217Z,34.30
2018-02-24T16:23:46.163Z,34.50
2018-02-24T16:26:14.167Z,34.20
2018-02-24T16:28:41.984Z,33.90
2018-02-24T16:31:10.348Z,33.80
2018-02-24T16:33:38.348Z,33.80
2018-02-24T16:36:06.632Z,34.00
2018-02-24T16:38:35.718Z,34.10
2018-02-24T16:41:03.368Z,34.00
2018-02-24T16:43:33.183Z,34.40
2018-02-24T16:46:01.196Z,34.30
2018-02-24T16:48:29.219Z,34.00
2018-02-24T16:50:56.863Z,34.00
2018-02-24T16:53:24.459Z,34.20
2018-02-24T16:55:52.038Z,34.40
2018-02-24T16:58:20.329Z,34.40
2018-02-24T17:00:49.537Z,34.80
2018-02-24T17:03:17.696Z,34.80
2018-02-24T17:05:46.705Z,35.10
2018-02-24T17:08:14.352Z,35.00
2018-02-24T17:10:41.929Z,35.00
2018-02-24T17:13:10.184Z,35.10
2018-02-24T17:15:37.972Z,35.20
2018-02-24T17:18:05.679Z,35.10
2018-02-24T17:20:34.508Z,35.50
2018-02-24T17:23:02.838Z,35.00
2018-02-24T17:25:31.300Z,35.10
2018-02-24T17:28:00.582Z,35.10
2018-02-24T17:30:28.206Z,35.10
2018-02-24T17:32:56.164Z,35.10
2018-02-24T17:35:23.916Z,35.20
2018-02-24T17:37:52.504Z,35.50
2018-02-24T17:40:20.075Z,35.60
2018-02-24T17:42:48.722Z,35.90
2018-02-24T17:45:16.320Z,35.70
2018-02-24T17:47:44.526Z,35.80
2018-02-24T17:50:12.149Z,35.70
2018-02-24T17:52:39.723Z,35.80
2018-02-24T17:55:08.012Z,36.00
2018-02-24T17:57:35.647Z,36.00
2018-02-24T18:00:03.226Z,36.10
2018-02-24T18:02:31.561Z,36.10
2018-02-24T18:04:59.714Z,36.20
2018-02-24T18:07:27.541Z,36.30
2018-02-24T18:09:55.126Z,36.30
2018-02-24T18:12:23.266Z,36.40
2018-02-24T18:14:50.880Z,36.50
2018-02-24T18:17:18.506Z,36.40
2018-02-24T18:19:46.140Z,36.40
2018-02-24T18:22:13.716Z,37.20
2018-02-24T18:24:42.374Z,36.50
2018-02-24T18:27:12.211Z,36.60
2018-02-24T18:29:40.492Z,36.50
2018-02-24T18:32:08.162Z,36.70
2018-02-24T18:34:36.495Z,36.70
2018-02-24T18:37:04.085Z,36.70
2018-02-24T18:39:31.651Z,36.50
2018-02-24T18:42:00.172Z,36.70
2018-02-24T18:44:27.903Z,37.20
2018-02-24T18:46:55.499Z,37.20
2018-02-24T18:49:23.157Z,37.00
2018-02-24T18:51:50.743Z,37.00
2018-02-24T18:54:18.320Z,37.00
2018-02-24T18:56:50.205Z,37.20
2018-02-24T18:59:18.882Z,37.10
2018-02-24T19:01:46.670Z,37.20
2018-02-24T19:04:15.361Z,37.20
2018-02-24T19:06:43.955Z,37.40
2018-02-24T19:09:11.676Z,37.30
2018-02-24T19:11:39.692Z,37.20
2018-02-24T19:14:08.027Z,37.20
2018-02-24T19:16:35.586Z,37.20
2018-02-24T19:19:03.175Z,37.30
2018-02-24T19:21:30.839Z,37.30
2018-02-24T19:23:59.029Z,37.40
2018-02-24T19:26:28.496Z,37.70
2018-02-24T19:28:56.856Z,37.70
2018-02-24T19:31:24.430Z,37.60
2018-02-24T19:33:52.003Z,37.50
2018-02-24T19:36:19.648Z,37.50
2018-02-24T19:38:47.207Z,37.70
2018-02-24T19:41:16.110Z,37.70
2018-02-24T19:43:43.730Z,37.60
2018-02-24T19:46:11.292Z,37.50
2018-02-24T19:48:39.316Z,37.50
2018-02-24T19:51:07.648Z,37.60
2018-02-24T20:17:31.600Z,37.10
2018-02-24T20:42:06.307Z,37.60
2018-02-24T20:44:35.350Z,37.50
2018-02-24T20:47:03.437Z,37.80
2018-02-24T20:49:31.628Z,38.00
2018-02-24T20:51:59.771Z,38.10
2018-02-24T20:54:28.651Z,38.20
2018-02-24T20:56:57.464Z,38.20
2018-02-24T20:59:27.212Z,38.10
2018-02-24T21:01:55.260Z,38.00
2018-02-24T21:04:23.393Z,38.00
2018-02-24T21:06:51.513Z,38.10
2018-02-24T21:09:19.907Z,38.70
2018-02-24T21:11:47.580Z,38.20
2018-02-24T21:14:15.452Z,38.10
2018-02-24T21:16:43.514Z,37.80
2018-02-24T21:19:11.678Z,37.70
2018-02-24T21:21:39.893Z,37.40
2018-02-24T21:24:07.522Z,37.40
2018-02-24T21:26:36.428Z,37.60
2018-02-24T21:29:04.367Z,38.10
2018-02-24T21:31:32.410Z,37.50
2018-02-24T21:34:01.812Z,37.50
2018-02-24T21:36:29.984Z,37.70
2018-02-24T21:38:58.079Z,37.70
2018-02-24T21:41:26.940Z,38.20
2018-02-24T21:43:55.674Z,37.70
2018-02-24T21:46:23.748Z,37.70
2018-02-24T21:48:51.310Z,37.70
2018-02-24T21:51:19.464Z,37.80
2018-02-24T21:53:47.092Z,37.80
2018-02-24T21:56:15.296Z,37.90
2018-02-24T21:58:42.913Z,38.00
2018-02-24T22:01:10.916Z,38.50
2018-02-24T22:03:38.910Z,38.10
2018-02-24T22:06:07.116Z,38.20
2018-02-24T22:08:35.101Z,38.30
2018-02-24T22:11:03.243Z,38.40
2018-02-24T22:13:32.024Z,38.50
2018-02-24T22:16:00.124Z,38.50
2018-02-24T22:18:28.902Z,38.50
2018-02-24T22:20:57.694Z,38.60
2018-02-24T22:23:26.116Z,38.70
2018-02-24T22:25:54.265Z,38.70
2018-02-24T22:28:22.774Z,38.80
2018-02-24T22:30:50.863Z,38.90
2018-02-24T22:33:19.824Z,39.10
2018-02-24T22:35:48.256Z,39.00
2018-02-24T22:38:16.340Z,39.00
2018-02-24T22:40:44.582Z,39.20
2018-02-24T22:43:12.751Z,39.20
2018-02-24T22:45:42.086Z,39.20
2018-02-24T22:48:15.745Z,39.20
2018-02-24T22:50:44.820Z,39.20
2018-02-24T22:53:14.933Z,39.10
2018-02-24T22:55:44.209Z,39.20
2018-02-24T22:58:13.075Z,39.20
2018-02-24T23:00:42.011Z,39.20
2018-02-24T23:03:12.097Z,39.10
2018-02-24T23:05:40.533Z,39.10
2018-02-24T23:08:08.878Z,39.10
2018-02-24T23:10:36.909Z,39.10
2018-02-24T23:13:05.725Z,39.10
2018-02-24T23:15:34.582Z,39.20
2018-02-24T23:18:03.694Z,39.00
2018-02-24T23:20:31.867Z,39.10
2018-02-24T23:22:59.955Z,39.10
2018-02-24T23:25:28.248Z,39.20
2018-02-24T23:27:57.746Z,39.20
2018-02-24T23:30:25.767Z,39.20
2018-02-24T23:32:54.933Z,39.20
2018-02-24T23:35:24.387Z,39.30
2018-02-24T23:37:52.417Z,39.40
2018-02-24T23:40:20.355Z,39.40
2018-02-24T23:42:47.955Z,39.30
2018-02-24T23:45:15.519Z,39.30
2018-02-24T23:47:43.141Z,39.40
2018-02-24T23:50:11.477Z,39.50
2018-02-24T23:52:39.097Z,39.50
2018-02-24T23:55:07.423Z,39.60
2018-02-24T23:57:35.244Z,39.50
